Aviation Digital Data Service (ADDS)

Output produced by METARs form (1912 UTC 25 June 2017)
found at http://www.aviationweather.gov/adds/metars/
 
KALB 251731Z 2518/2618 27010G18KT P6SM VCSH SCT050 
     FM260100 24003KT P6SM FEW050 
     FM261500 26007KT P6SM BKN050